International Virtual Aviation Organisation

Russian Federation and Kazakhstan MCD

 

Карточка аэропорта USHH

Внимание!
Информация на этой странице в стадии наполнения.
Если вы не увидели какой-то информации, или заметили неточность - пожалуйста сообщите нам!
Спасибо!
Команда RU-STAFF
Название аэропортаХанты-Мансийск
Название аэропорта (англ.)Khanty-Mansiysk
Превышение141 ft. (43 m.)
Координаты61°1.7039999999999', 69°5.1599999999999'
Высота перехода800m
Эшелон переходаFL050
Коды ответчика5150-5177
Зона ОрВДТюмень РПИ (USTV)
Данные METARUSHH 171000Z 18004MPS 4500 -SN BR BKN007 M08/M10 Q1023 R24/490239 TEMPO 1000 SN BR OVC004
Проноз погоды (TAF)USHH 170830Z 1708/1809 18003G08MPS 9999 SCT005 BKN011 TEMPO 1708/1724 1500 SN BR BKN003 BKN011 BECMG 1720/1722 18009G18MPS FM180000 18009G18MPS 2000 SN BLSN BKN004 OVC011 TEMPO 1800/1809 0500 +SHSN BLSN BKN002 BKN015CB
NOTAMshow/hide NOTAM
AWOS   TABLE

Информация о ВПП

ВПП Длина ВПП (м.) Покрытие Курс ВПП Частота ILS
062800Асфальтобетон58111.9
242800Асфальтобетон238110.1

Диспетчерские позиции

Позывной Наименование органа УВД Частота
USHH_R_APPХантым-Круг120.4
USHH_TWRХантым-Вышка118.1



Спутниковое изображение